createdAt,value
2022-11-16T00:01:21.349Z,6.38
2022-11-16T00:03:48.096Z,6.15
2022-11-16T00:06:15.022Z,6.38
2022-11-16T00:08:42.434Z,5.80
2022-11-16T00:11:08.816Z,6.38
2022-11-16T00:13:35.566Z,6.07
2022-11-16T00:16:02.114Z,5.93
2022-11-16T00:18:28.695Z,5.88
2022-11-16T00:20:55.336Z,5.50
2022-11-16T00:23:22.151Z,5.80
2022-11-16T00:25:48.583Z,5.28
2022-11-16T00:28:15.001Z,5.60
2022-11-16T00:30:41.340Z,5.50
2022-11-16T00:33:08.386Z,5.55
2022-11-16T00:35:38.643Z,5.60
2022-11-16T00:38:05.234Z,5.82
2022-11-16T00:40:31.627Z,5.65
2022-11-16T00:42:57.967Z,5.55
2022-11-16T00:45:24.382Z,5.35
2022-11-16T00:47:50.730Z,4.80
2022-11-16T00:50:17.159Z,5.53
2022-11-16T00:52:43.733Z,5.10
2022-11-16T00:55:10.113Z,4.95
2022-11-16T00:57:36.468Z,5.10
2022-11-16T01:00:04.293Z,5.93
2022-11-16T01:02:30.641Z,5.78
2022-11-16T01:04:57.026Z,5.38
2022-11-16T01:07:23.455Z,5.90
2022-11-16T01:09:49.997Z,5.78
2022-11-16T01:12:17.220Z,5.20
2022-11-16T01:14:44.615Z,6.30
2022-11-16T01:17:11.192Z,5.65
2022-11-16T01:19:37.754Z,5.63
2022-11-16T01:22:04.497Z,5.88
2022-11-16T01:24:31.002Z,5.45
2022-11-16T01:26:58.793Z,5.32
2022-11-16T01:29:25.831Z,5.72
2022-11-16T01:31:52.205Z,5.97
2022-11-16T01:34:18.606Z,6.05
2022-11-16T01:36:45.030Z,6.15
2022-11-16T01:39:12.911Z,5.68
2022-11-16T01:41:40.155Z,5.75
2022-11-16T01:44:26.453Z,5.65
2022-11-16T01:46:52.918Z,5.88
2022-11-16T01:49:22.328Z,5.43
2022-11-16T01:51:57.452Z,5.97
2022-11-16T01:54:23.985Z,6.30
2022-11-16T01:56:51.110Z,5.53
2022-11-16T01:59:17.876Z,6.15
2022-11-16T02:01:44.330Z,6.10
2022-11-16T02:04:11.379Z,5.82
2022-11-16T02:06:56.289Z,5.78
2022-11-16T02:09:49.387Z,5.55
2022-11-16T02:12:15.781Z,5.50
2022-11-16T02:14:48.522Z,5.97
2022-11-16T02:17:17.996Z,5.82
2022-11-16T02:20:03.172Z,5.90
2022-11-16T02:22:57.839Z,5.93
2022-11-16T02:25:24.155Z,4.80
2022-11-16T02:28:10.781Z,5.35
2022-11-16T02:30:40.416Z,5.10
2022-11-16T02:33:12.050Z,5.50
2022-11-16T02:35:42.277Z,5.57
2022-11-16T02:38:15.020Z,5.22
2022-11-16T02:40:43.595Z,4.35
2022-11-16T02:43:12.248Z,4.53
2022-11-16T02:45:47.725Z,4.35
2022-11-16T02:48:19.221Z,4.28
2022-11-16T02:50:46.744Z,4.45
2022-11-16T02:53:13.134Z,4.35
2022-11-16T02:55:39.484Z,3.88
2022-11-16T02:58:07.013Z,3.13
2022-11-16T03:00:43.587Z,3.38
2022-11-16T03:03:13.076Z,3.33
2022-11-16T03:05:43.028Z,3.25
2022-11-16T03:08:28.120Z,3.28
2022-11-16T03:11:15.283Z,3.37
2022-11-16T03:13:42.036Z,3.30
2022-11-16T03:16:14.517Z,3.20
2022-11-16T03:18:41.957Z,3.40
2022-11-16T03:21:15.189Z,3.35
2022-11-16T03:23:42.207Z,3.22
2022-11-16T03:26:10.460Z,3.30
2022-11-16T03:28:41.240Z,3.03
2022-11-16T03:31:17.553Z,3.33
2022-11-16T03:33:45.997Z,3.03
2022-11-16T03:36:17.935Z,3.00
2022-11-16T03:38:45.763Z,3.08
2022-11-16T03:41:13.192Z,3.08
2022-11-16T03:43:40.305Z,2.78
2022-11-16T03:46:06.858Z,2.80
2022-11-16T03:48:37.145Z,2.95
2022-11-16T03:51:04.339Z,3.10
2022-11-16T03:53:30.759Z,3.30
2022-11-16T03:55:57.193Z,2.80
2022-11-16T03:58:23.606Z,3.10
2022-11-16T04:00:49.965Z,2.95
2022-11-16T04:03:16.373Z,2.97
2022-11-16T04:06:01.580Z,3.05
2022-11-16T04:08:46.545Z,2.80
2022-11-16T04:11:32.286Z,3.30
2022-11-16T04:14:17.237Z,3.10
2022-11-16T04:17:02.174Z,3.05
2022-11-16T04:19:47.093Z,3.10
2022-11-16T04:22:37.586Z,3.40
2022-11-16T04:25:15.766Z,2.95
2022-11-16T04:28:00.746Z,3.28
2022-11-16T04:30:47.155Z,3.45
2022-11-16T04:33:32.203Z,3.55
2022-11-16T04:36:20.544Z,3.25
2022-11-16T04:38:47.240Z,3.13
2022-11-16T04:41:33.541Z,3.47
2022-11-16T04:43:59.960Z,3.40
2022-11-16T04:46:45.148Z,3.25
2022-11-16T04:49:11.451Z,3.67
2022-11-16T04:51:37.857Z,3.45
2022-11-16T04:54:04.402Z,3.42
2022-11-16T04:56:30.788Z,3.45
2022-11-16T04:58:57.188Z,3.38
2022-11-16T05:01:43.530Z,3.53
2022-11-16T05:04:10.014Z,3.20
2022-11-16T05:06:36.494Z,3.70
2022-11-16T05:09:02.956Z,3.88
2022-11-16T05:11:29.525Z,3.90
2022-11-16T05:13:55.875Z,3.95
2022-11-16T05:16:22.241Z,3.67
2022-11-16T05:19:08.586Z,3.58
2022-11-16T05:21:35.024Z,3.92
2022-11-16T05:24:20.144Z,4.22
2022-11-16T05:26:46.753Z,2.80
2022-11-16T05:29:13.186Z,3.88
2022-11-16T05:31:40.634Z,4.10
2022-11-16T05:34:08.284Z,3.75
2022-11-16T05:36:34.664Z,3.63
2022-11-16T05:39:01.259Z,4.25
2022-11-16T05:41:27.687Z,3.38
2022-11-16T05:43:55.347Z,3.70
2022-11-16T05:46:23.023Z,3.80
2022-11-16T05:48:49.477Z,3.83
2022-11-16T05:51:16.063Z,3.80
2022-11-16T05:53:44.162Z,3.40
2022-11-16T05:56:10.974Z,3.90
2022-11-16T05:58:37.610Z,3.65
2022-11-16T06:01:04.114Z,4.00
2022-11-16T06:03:31.008Z,3.60
2022-11-16T06:05:58.061Z,3.95
2022-11-16T06:08:24.698Z,4.10
2022-11-16T06:10:51.063Z,3.72
2022-11-16T06:13:17.521Z,3.70
2022-11-16T06:15:50.221Z,3.97
2022-11-16T06:18:16.552Z,3.78
2022-11-16T06:20:43.114Z,3.55
2022-11-16T06:23:09.457Z,3.80
2022-11-16T06:25:38.054Z,4.57
2022-11-16T06:28:07.944Z,4.20
2022-11-16T06:30:34.807Z,3.90
2022-11-16T06:33:01.218Z,3.95
2022-11-16T06:35:27.636Z,3.88
2022-11-16T06:37:54.028Z,3.78
2022-11-16T06:40:20.416Z,3.78
2022-11-16T06:42:46.885Z,3.90
2022-11-16T06:45:13.342Z,4.22
2022-11-16T06:47:39.726Z,5.47
2022-11-16T06:50:06.372Z,5.05
2022-11-16T06:52:32.807Z,4.53
2022-11-16T06:54:59.229Z,4.05
2022-11-16T06:57:25.600Z,3.47
2022-11-16T06:59:51.943Z,3.85
2022-11-16T07:02:21.339Z,3.97
2022-11-16T07:04:47.747Z,3.45
2022-11-16T07:07:15.842Z,3.85
2022-11-16T07:09:44.549Z,3.47
2022-11-16T07:12:10.980Z,3.80
2022-11-16T07:14:37.532Z,4.07
2022-11-16T07:17:09.300Z,4.10
2022-11-16T07:19:36.797Z,3.72
2022-11-16T07:22:04.312Z,4.07
2022-11-16T07:24:30.722Z,4.15
2022-11-16T07:26:57.398Z,4.10
2022-11-16T07:29:24.546Z,3.67
2022-11-16T07:31:51.172Z,4.38
2022-11-16T07:34:17.520Z,4.30
2022-11-16T07:36:44.485Z,4.35
2022-11-16T07:39:11.033Z,4.88
2022-11-16T07:41:40.183Z,4.20
2022-11-16T07:44:11.765Z,4.15
2022-11-16T07:46:46.627Z,3.90
2022-11-16T07:49:15.064Z,3.20
2022-11-16T07:51:41.549Z,3.63
2022-11-16T07:54:08.276Z,3.80
2022-11-16T07:56:34.700Z,4.07
2022-11-16T07:59:01.970Z,3.92
2022-11-16T08:01:28.364Z,3.40
2022-11-16T08:03:54.822Z,3.65
2022-11-16T08:06:23.401Z,3.78
2022-11-16T08:08:55.125Z,3.88
2022-11-16T08:11:24.358Z,3.55
2022-11-16T08:13:50.920Z,4.03
2022-11-16T08:16:18.909Z,4.10
2022-11-16T08:18:45.490Z,5.03
2022-11-16T08:21:12.714Z,4.10
2022-11-16T08:23:40.330Z,3.85
2022-11-16T08:26:11.053Z,3.85
2022-11-16T08:28:37.678Z,4.20
2022-11-16T08:31:17.446Z,4.40
2022-11-16T08:33:44.225Z,4.28
2022-11-16T08:36:14.399Z,4.55
2022-11-16T08:38:41.028Z,4.30
2022-11-16T08:41:07.803Z,4.18
2022-11-16T08:43:34.203Z,4.90
2022-11-16T08:46:00.747Z,4.07
2022-11-16T08:48:27.386Z,4.80
2022-11-16T08:51:16.281Z,4.60
2022-11-16T08:53:40.616Z,4.90
2022-11-16T08:56:11.817Z,5.82
2022-11-16T08:58:38.677Z,4.47
2022-11-16T09:01:09.992Z,5.85
2022-11-16T09:03:37.591Z,6.13
2022-11-16T09:06:04.480Z,6.93
2022-11-16T09:08:31.749Z,7.28
2022-11-16T09:10:58.474Z,6.35
2022-11-16T09:13:25.257Z,4.47
2022-11-16T09:15:58.725Z,5.05
2022-11-16T09:18:25.383Z,4.88
2022-11-16T09:20:51.948Z,4.65
2022-11-16T09:23:23.743Z,4.40
2022-11-16T09:25:51.585Z,4.38
2022-11-16T09:28:18.456Z,4.35
2022-11-16T09:30:45.494Z,4.65
2022-11-16T09:33:12.324Z,4.78
2022-11-16T09:35:38.868Z,4.53
2022-11-16T09:38:05.620Z,4.47
2022-11-16T09:40:36.455Z,4.68
2022-11-16T09:43:02.916Z,7.93
2022-11-16T09:45:41.463Z,6.45
2022-11-16T09:48:12.080Z,5.75
2022-11-16T09:50:47.053Z,5.75
2022-11-16T09:53:13.363Z,4.57
2022-11-16T09:55:47.349Z,3.92
2022-11-16T09:58:17.789Z,3.92
2022-11-16T10:00:46.660Z,3.65
2022-11-16T10:03:13.738Z,3.63
2022-11-16T10:05:45.971Z,3.40
2022-11-16T10:08:24.980Z,3.30
2022-11-16T10:10:59.114Z,2.85
2022-11-16T10:13:45.770Z,2.85
2022-11-16T10:16:16.995Z,2.97
2022-11-16T10:18:43.334Z,3.00
2022-11-16T10:21:09.737Z,2.78
2022-11-16T10:23:51.287Z,3.00
2022-11-16T10:26:23.817Z,2.90
2022-11-16T10:28:56.940Z,2.90
2022-11-16T10:31:23.414Z,2.90
2022-11-16T10:33:50.756Z,2.95
2022-11-16T10:36:18.038Z,2.85
2022-11-16T10:38:44.523Z,2.75
2022-11-16T10:41:23.716Z,2.90
2022-11-16T10:43:50.151Z,2.65
2022-11-16T10:46:25.735Z,2.65
2022-11-16T10:48:54.465Z,2.58
2022-11-16T10:51:20.860Z,2.92
2022-11-16T10:53:47.312Z,3.00
2022-11-16T10:56:21.136Z,2.88
2022-11-16T10:58:55.191Z,2.88
2022-11-16T11:01:27.630Z,2.90
2022-11-16T11:03:54.069Z,2.55
2022-11-16T11:06:23.045Z,2.60
2022-11-16T11:08:49.593Z,2.90
2022-11-16T11:11:41.411Z,2.95
2022-11-16T11:14:12.489Z,2.67
2022-11-16T11:16:41.589Z,3.10
2022-11-16T11:19:18.403Z,2.75
2022-11-16T11:21:45.170Z,2.85
2022-11-16T11:24:43.497Z,3.20
2022-11-16T11:27:04.885Z,2.63
2022-11-16T11:29:32.534Z,3.28
2022-11-16T11:32:06.421Z,3.33
2022-11-16T11:34:39.322Z,3.45
2022-11-16T11:37:11.387Z,3.42
2022-11-16T11:39:37.858Z,3.78
2022-11-16T11:42:23.385Z,5.68
2022-11-16T11:44:58.565Z,8.18
2022-11-16T11:50:21.015Z,6.63
2022-11-16T11:52:47.521Z,6.72
2022-11-16T11:55:15.869Z,6.57
2022-11-16T11:57:43.663Z,7.82
2022-11-16T12:00:14.225Z,10.57
2022-11-16T12:02:59.283Z,9.02
2022-11-16T12:05:25.695Z,6.60
2022-11-16T12:07:52.261Z,7.20
2022-11-16T12:10:27.809Z,6.93
2022-11-16T12:18:07.042Z,6.18
2022-11-16T12:20:33.406Z,6.50
2022-11-16T12:23:18.450Z,6.72
2022-11-16T12:26:02.598Z,7.45
2022-11-16T12:28:51.091Z,6.50
2022-11-16T12:31:43.934Z,6.30
2022-11-16T12:34:10.258Z,6.28
2022-11-16T12:36:39.460Z,7.40
2022-11-16T12:39:19.518Z,6.10
2022-11-16T12:41:58.078Z,6.05
2022-11-16T12:44:33.849Z,6.30
2022-11-16T12:47:00.220Z,5.90
2022-11-16T12:49:45.269Z,4.97
2022-11-16T12:52:30.473Z,5.43
2022-11-16T12:55:24.851Z,5.40
2022-11-16T12:57:54.599Z,5.10
2022-11-16T13:00:21.015Z,5.30
2022-11-16T13:02:47.414Z,5.60
2022-11-16T13:05:18.017Z,5.55
2022-11-16T13:07:44.540Z,6.85
2022-11-16T13:10:21.723Z,5.47
2022-11-16T13:12:52.703Z,5.50
2022-11-16T13:15:32.814Z,5.50
2022-11-16T13:18:02.123Z,5.93
2022-11-16T13:20:31.465Z,5.72
2022-11-16T13:23:00.455Z,5.90
2022-11-16T13:25:31.962Z,5.72
2022-11-16T13:28:12.104Z,5.68
2022-11-16T13:30:50.388Z,5.63
2022-11-16T13:33:35.449Z,6.93
2022-11-16T13:36:21.754Z,6.65
2022-11-16T13:38:54.267Z,6.75
2022-11-16T13:41:28.444Z,7.10
2022-11-16T13:43:55.234Z,6.53
2022-11-16T13:46:53.750Z,6.60
2022-11-16T13:49:19.454Z,6.90
2022-11-16T13:52:22.025Z,7.35
2022-11-16T13:54:52.029Z,7.30
2022-11-16T13:57:24.905Z,7.57
2022-11-16T14:00:00.570Z,7.45
2022-11-16T14:04:56.260Z,6.93
2022-11-16T14:07:28.136Z,7.70
2022-11-16T14:09:54.600Z,8.75
2022-11-16T14:12:40.103Z,7.65
2022-11-16T14:15:17.111Z,8.80
2022-11-16T14:18:02.187Z,8.13
2022-11-16T14:20:37.893Z,8.13
2022-11-16T14:23:23.178Z,6.88
2022-11-16T14:25:58.873Z,8.20
2022-11-16T14:31:15.480Z,8.18
2022-11-16T14:33:42.200Z,7.90
2022-11-16T14:36:09.890Z,8.50
2022-11-16T14:38:40.424Z,8.18
2022-11-16T14:41:11.268Z,8.18
2022-11-16T14:43:42.646Z,7.80
2022-11-16T14:46:15.838Z,8.55
2022-11-16T14:48:44.117Z,8.32
2022-11-16T14:51:13.515Z,7.85
2022-11-16T14:53:41.647Z,8.02
2022-11-16T14:56:15.496Z,7.68
2022-11-16T14:58:52.200Z,7.78
2022-11-16T15:01:20.555Z,7.55
2022-11-16T15:03:50.017Z,8.23
2022-11-16T15:06:16.673Z,8.50
2022-11-16T15:08:44.525Z,8.40
2022-11-16T15:11:20.818Z,8.50
2022-11-16T15:13:47.533Z,8.40
2022-11-16T15:16:20.183Z,8.38
2022-11-16T15:18:57.339Z,8.63
2022-11-16T15:21:24.302Z,8.55
2022-11-16T15:24:15.593Z,8.35
2022-11-16T15:26:38.363Z,9.05
2022-11-16T15:29:04.729Z,8.88
2022-11-16T15:31:31.104Z,8.80
2022-11-16T15:33:57.590Z,8.70
2022-11-16T15:36:25.830Z,8.88
2022-11-16T15:38:56.721Z,9.55
2022-11-16T15:41:23.778Z,9.65
2022-11-16T15:44:13.285Z,11.82
2022-11-16T15:46:41.409Z,11.63
2022-11-16T15:49:13.167Z,11.45
2022-11-16T15:51:42.755Z,12.07
2022-11-16T15:54:21.759Z,12.63
2022-11-16T15:56:48.398Z,11.07
2022-11-16T15:59:19.483Z,12.07
2022-11-16T16:01:45.979Z,12.15
2022-11-16T16:04:16.720Z,12.48
2022-11-16T16:06:45.923Z,11.43
2022-11-16T16:09:31.115Z,12.32
2022-11-16T16:12:15.455Z,12.37
2022-11-16T16:14:41.974Z,12.10
2022-11-16T16:17:09.136Z,12.43
2022-11-16T16:19:43.048Z,12.23
2022-11-16T16:22:14.075Z,12.32
2022-11-16T16:24:45.220Z,12.82
2022-11-16T16:27:14.914Z,12.82
2022-11-16T16:29:41.498Z,13.05
2022-11-16T16:32:23.376Z,13.73
2022-11-16T16:34:49.732Z,12.68
2022-11-16T16:37:16.136Z,11.80
2022-11-16T16:39:42.660Z,11.00
2022-11-16T16:42:10.599Z,10.55
2022-11-16T16:44:37.068Z,10.13
2022-11-16T16:47:03.521Z,10.40
2022-11-16T16:49:30.046Z,10.55
2022-11-16T16:51:56.480Z,9.93
2022-11-16T16:54:22.894Z,9.40
2022-11-16T16:56:49.283Z,9.18
2022-11-16T16:59:15.688Z,9.95
2022-11-16T17:01:42.105Z,9.70
2022-11-16T17:04:08.718Z,9.15
2022-11-16T17:06:35.181Z,8.43
2022-11-16T17:09:01.564Z,9.13
2022-11-16T17:11:28.847Z,8.98
2022-11-16T17:13:55.391Z,8.95
2022-11-16T17:16:22.430Z,9.13
2022-11-16T17:18:53.470Z,9.40
2022-11-16T17:21:19.872Z,9.50
2022-11-16T17:23:46.277Z,11.13
2022-11-16T17:26:12.725Z,9.45
2022-11-16T17:28:39.077Z,9.48
2022-11-16T17:31:06.190Z,10.63
2022-11-16T17:33:36.734Z,9.98
2022-11-16T17:36:04.005Z,10.60
2022-11-16T17:38:31.316Z,10.50
2022-11-16T17:41:03.982Z,9.90
2022-11-16T17:43:30.385Z,9.43
2022-11-16T17:46:03.913Z,8.80
2022-11-16T17:48:30.293Z,8.43
2022-11-16T17:50:56.666Z,8.32
2022-11-16T17:53:23.900Z,8.73
2022-11-16T17:55:51.677Z,8.40
2022-11-16T17:58:18.079Z,8.55
2022-11-16T18:00:44.648Z,8.55
2022-11-16T18:03:11.047Z,10.30
2022-11-16T18:05:37.444Z,12.60
2022-11-16T18:08:05.102Z,16.48
2022-11-16T18:10:32.769Z,16.92
2022-11-16T18:12:59.166Z,15.27
2022-11-16T18:15:29.267Z,14.95
2022-11-16T18:17:56.150Z,15.75
2022-11-16T18:20:24.330Z,15.57
2022-11-16T18:22:50.680Z,14.70
2022-11-16T18:25:17.130Z,15.55
2022-11-16T18:27:43.503Z,13.95
2022-11-16T18:30:10.205Z,14.85
2022-11-16T18:32:36.644Z,13.38
2022-11-16T18:35:04.761Z,12.57
2022-11-16T18:37:31.153Z,12.35
2022-11-16T18:39:57.562Z,12.27
2022-11-16T18:42:23.970Z,11.68
2022-11-16T18:44:51.339Z,11.77
2022-11-16T18:47:17.897Z,10.48
2022-11-16T18:49:44.277Z,9.43
2022-11-16T18:52:11.048Z,8.90
2022-11-16T18:54:37.820Z,8.73
2022-11-16T18:57:04.438Z,8.40
2022-11-16T18:59:30.852Z,8.23
2022-11-16T19:01:57.224Z,9.55
2022-11-16T19:04:23.720Z,8.40
2022-11-16T19:06:50.167Z,8.50
2022-11-16T19:09:16.605Z,8.20
2022-11-16T19:11:42.986Z,8.68
2022-11-16T19:14:09.490Z,8.23
2022-11-16T19:16:36.168Z,7.72
2022-11-16T19:19:03.006Z,10.90
2022-11-16T19:21:29.748Z,11.90
2022-11-16T19:23:56.860Z,11.93
2022-11-16T19:26:24.379Z,12.40
2022-11-16T19:28:51.462Z,11.43
2022-11-16T19:31:19.282Z,11.90
2022-11-16T19:33:46.241Z,11.82
2022-11-16T19:36:12.701Z,12.77
2022-11-16T19:38:39.463Z,13.32
2022-11-16T19:41:06.639Z,13.65
2022-11-16T19:43:33.669Z,14.75
2022-11-16T19:46:04.896Z,15.25
2022-11-16T19:48:32.429Z,15.80
2022-11-16T19:51:08.888Z,16.23
2022-11-16T19:53:35.745Z,15.30
2022-11-16T19:56:02.791Z,15.88
2022-11-16T19:58:29.501Z,16.30
2022-11-16T20:01:03.290Z,15.85
2022-11-16T20:03:30.221Z,16.55
2022-11-16T20:06:11.739Z,15.82
2022-11-16T20:08:38.862Z,15.88
2022-11-16T20:11:15.356Z,16.23
2022-11-16T20:13:42.566Z,14.75
2022-11-16T20:16:10.179Z,15.45
2022-11-16T20:18:37.123Z,15.85
2022-11-16T20:21:05.228Z,14.38
2022-11-16T20:23:34.460Z,16.55
2022-11-16T20:26:05.408Z,14.60
2022-11-16T20:28:36.091Z,12.52
2022-11-16T20:31:05.174Z,10.05
2022-11-16T20:33:33.105Z,9.40
2022-11-16T20:36:00.548Z,8.10
2022-11-16T20:38:26.916Z,8.05
2022-11-16T20:40:53.328Z,8.10
2022-11-16T20:43:19.720Z,8.25
2022-11-16T20:45:51.275Z,8.02
2022-11-16T20:48:17.624Z,10.60
2022-11-16T20:50:45.553Z,8.80
2022-11-16T20:53:11.878Z,9.13
2022-11-16T20:55:38.417Z,8.38
2022-11-16T20:58:04.792Z,9.40
2022-11-16T21:00:31.239Z,9.27
2022-11-16T21:02:57.597Z,9.77
2022-11-16T21:05:23.975Z,9.55
2022-11-16T21:07:50.367Z,10.63
2022-11-16T21:10:19.761Z,10.27
2022-11-16T21:13:04.734Z,10.10
2022-11-16T21:15:31.100Z,10.15
2022-11-16T21:17:57.500Z,11.27
2022-11-16T21:20:28.348Z,10.80
2022-11-16T21:22:55.189Z,12.80
2022-11-16T21:25:21.625Z,11.23
2022-11-16T21:27:48.196Z,10.25
2022-11-16T21:30:14.635Z,10.65
2022-11-16T21:32:41.072Z,11.38
2022-11-16T21:35:07.645Z,11.35
2022-11-16T21:37:33.982Z,11.07
2022-11-16T21:40:00.335Z,10.75
2022-11-16T21:42:26.756Z,11.20
2022-11-16T21:44:53.128Z,11.55
2022-11-16T21:47:21.200Z,11.10
2022-11-16T21:50:08.697Z,11.80
2022-11-16T21:52:34.023Z,11.20
2022-11-16T21:55:00.579Z,10.90
2022-11-16T21:57:29.727Z,10.27
2022-11-16T21:59:56.185Z,9.68
2022-11-16T22:02:22.554Z,10.05
2022-11-16T22:05:07.702Z,8.30
2022-11-16T22:07:34.578Z,8.50
2022-11-16T22:10:04.433Z,8.85
2022-11-16T22:12:30.845Z,8.95
2022-11-16T22:14:58.459Z,9.52
2022-11-16T22:17:25.207Z,9.32
2022-11-16T22:19:51.601Z,9.45
2022-11-16T22:22:18.087Z,9.85
2022-11-16T22:24:44.636Z,10.13
2022-11-16T22:27:11.443Z,10.02
2022-11-16T22:29:37.865Z,10.32
2022-11-16T22:32:04.464Z,11.25
2022-11-16T22:34:30.964Z,11.07
2022-11-16T22:36:57.283Z,11.48
2022-11-16T22:39:23.761Z,12.90
2022-11-16T22:41:50.312Z,12.07
2022-11-16T22:44:16.640Z,11.57
2022-11-16T22:46:42.988Z,12.13
2022-11-16T22:49:09.432Z,12.93
2022-11-16T22:51:36.041Z,12.65
2022-11-16T22:54:03.257Z,12.95
2022-11-16T22:56:30.563Z,13.55
2022-11-16T22:58:57.089Z,12.35
2022-11-16T23:01:23.938Z,12.40
2022-11-16T23:03:50.660Z,13.25
2022-11-16T23:06:17.235Z,11.45
2022-11-16T23:08:43.659Z,12.35
2022-11-16T23:11:32.021Z,11.90
2022-11-16T23:14:17.543Z,11.68
2022-11-16T23:16:44.488Z,8.00
2022-11-16T23:19:30.571Z,9.98
2022-11-16T23:22:15.483Z,10.38
2022-11-16T23:25:00.986Z,10.68
2022-11-16T23:27:31.614Z,10.30
2022-11-16T23:30:02.036Z,9.63
2022-11-16T23:32:28.953Z,9.02
2022-11-16T23:34:55.342Z,9.18
2022-11-16T23:37:21.803Z,8.40
2022-11-16T23:39:48.210Z,8.43
2022-11-16T23:42:33.053Z,7.57
2022-11-16T23:44:59.507Z,7.25
2022-11-16T23:47:26.024Z,7.85
2022-11-16T23:49:52.416Z,6.95
2022-11-16T23:52:18.780Z,7.10
2022-11-16T23:54:45.345Z,6.90
2022-11-16T23:57:11.789Z,7.38
2022-11-16T23:59:38.131Z,6.97
